createdAt,value
2018-08-18T00:00:19.637Z,21.60
2018-08-18T00:02:48.547Z,21.60
2018-08-18T00:05:17.990Z,21.50
2018-08-18T00:07:46.942Z,21.60
2018-08-18T00:10:18.624Z,21.60
2018-08-18T00:12:47.444Z,21.50
2018-08-18T00:15:16.258Z,21.50
2018-08-18T00:17:45.134Z,21.40
2018-08-18T00:20:17.182Z,21.40
2018-08-18T00:22:46.318Z,21.50
2018-08-18T00:25:15.130Z,21.50
2018-08-18T00:27:43.951Z,21.50
2018-08-18T00:30:18.059Z,21.30
2018-08-18T00:32:46.874Z,21.40
2018-08-18T00:35:15.675Z,21.30
2018-08-18T00:37:44.520Z,21.30
2018-08-18T00:40:13.345Z,21.40
2018-08-18T00:42:42.174Z,21.30
2018-08-18T00:45:13.377Z,21.30
2018-08-18T00:47:42.199Z,21.30
2018-08-18T00:50:12.104Z,21.40
2018-08-18T00:52:40.958Z,21.30
2018-08-18T00:55:09.777Z,21.40
2018-08-18T00:57:38.592Z,21.50
2018-08-18T01:00:07.979Z,21.60
2018-08-18T01:02:37.098Z,21.60
2018-08-18T01:05:06.248Z,21.70
2018-08-18T01:07:35.122Z,21.70
2018-08-18T01:10:04.141Z,21.70
2018-08-18T01:12:33.232Z,21.70
2018-08-18T01:15:02.124Z,21.60
2018-08-18T01:17:30.908Z,21.60
2018-08-18T01:19:59.728Z,21.70
2018-08-18T01:22:28.585Z,21.60
2018-08-18T01:24:57.387Z,21.70
2018-08-18T01:27:26.737Z,21.70
2018-08-18T01:30:00.785Z,21.70
2018-08-18T01:32:31.960Z,21.60
2018-08-18T01:35:00.799Z,21.60
2018-08-18T01:37:31.490Z,21.60
2018-08-18T01:40:00.374Z,21.70
2018-08-18T01:42:31.949Z,21.70
2018-08-18T01:45:01.880Z,21.60
2018-08-18T01:47:31.059Z,21.60
2018-08-18T01:50:06.082Z,21.60
2018-08-18T01:55:34.449Z,21.60
2018-08-18T01:58:03.276Z,21.60
2018-08-18T02:00:32.163Z,21.70
2018-08-18T02:03:01.165Z,21.60
2018-08-18T02:05:30.134Z,21.60
2018-08-18T02:07:58.980Z,21.60
2018-08-18T02:10:27.937Z,21.60
2018-08-18T02:13:02.619Z,21.70
2018-08-18T02:15:31.876Z,21.70
2018-08-18T02:18:00.772Z,21.70
2018-08-18T02:20:29.669Z,21.70
2018-08-18T02:22:58.554Z,21.70
2018-08-18T02:25:27.424Z,21.70
2018-08-18T02:27:56.296Z,21.60
2018-08-18T02:30:25.204Z,21.60
2018-08-18T02:32:54.072Z,21.60
2018-08-18T02:35:23.498Z,21.60
2018-08-18T02:37:52.388Z,21.50
2018-08-18T02:40:21.227Z,21.50
2018-08-18T02:42:50.088Z,21.40
2018-08-18T02:45:18.969Z,21.30
2018-08-18T02:47:47.880Z,21.30
2018-08-18T02:50:16.724Z,21.30
2018-08-18T02:52:45.570Z,21.10
2018-08-18T02:55:14.521Z,21.10
2018-08-18T02:57:44.996Z,21.20
2018-08-18T03:00:34.918Z,21.20
2018-08-18T03:03:03.780Z,21.10
2018-08-18T03:05:32.660Z,21.10
2018-08-18T03:08:01.777Z,21.10
2018-08-18T03:10:30.656Z,21.00
2018-08-18T03:13:00.852Z,21.00
2018-08-18T03:16:04.480Z,21.00
2018-08-18T03:18:35.235Z,20.90
2018-08-18T03:21:04.505Z,21.10
2018-08-18T03:23:34.089Z,21.10
2018-08-18T03:26:02.993Z,21.10
2018-08-18T03:28:37.379Z,21.00
2018-08-18T03:31:06.861Z,20.90
2018-08-18T03:33:35.661Z,20.80
2018-08-18T03:36:18.349Z,20.70
2018-08-18T03:38:47.245Z,20.80
2018-08-18T03:41:16.100Z,20.90
2018-08-18T03:43:45.014Z,20.90
2018-08-18T03:46:13.884Z,21.00
2018-08-18T03:48:42.713Z,21.10
2018-08-18T03:51:11.629Z,21.10
2018-08-18T03:53:40.505Z,21.10
2018-08-18T03:56:09.390Z,21.00
2018-08-18T03:58:53.251Z,20.90
2018-08-18T04:01:54.625Z,20.90
2018-08-18T04:04:24.675Z,20.70
2018-08-18T04:06:54.804Z,20.70
2018-08-18T04:09:25.973Z,20.70
2018-08-18T04:11:56.515Z,20.80
2018-08-18T04:14:30.784Z,20.80
2018-08-18T04:16:59.616Z,20.80
2018-08-18T04:19:28.429Z,20.90
2018-08-18T04:21:57.626Z,20.90
2018-08-18T04:24:36.451Z,20.90
2018-08-18T04:27:05.433Z,21.00
2018-08-18T04:29:34.320Z,21.00
2018-08-18T04:32:03.231Z,21.10
2018-08-18T04:34:32.149Z,21.10
2018-08-18T04:37:02.108Z,21.20
2018-08-18T04:39:30.976Z,21.30
2018-08-18T04:41:59.892Z,21.30
2018-08-18T04:44:28.784Z,21.40
2018-08-18T04:46:57.614Z,21.50
2018-08-18T04:49:26.523Z,21.50
2018-08-18T04:51:55.345Z,21.50
2018-08-18T04:54:24.212Z,21.60
2018-08-18T04:56:53.214Z,21.60
2018-08-18T04:59:23.288Z,21.60
2018-08-18T05:01:52.080Z,21.70
2018-08-18T05:04:21.048Z,21.80
2018-08-18T05:06:49.933Z,21.90
2018-08-18T05:09:18.818Z,22.00
2018-08-18T05:11:47.724Z,22.10
2018-08-18T05:14:16.600Z,22.10
2018-08-18T05:16:45.493Z,22.20
2018-08-18T05:19:14.450Z,22.20
2018-08-18T05:21:43.343Z,22.30
2018-08-18T05:24:22.836Z,22.40
2018-08-18T05:26:52.735Z,22.40
2018-08-18T05:29:21.813Z,22.40
2018-08-18T05:31:50.734Z,22.50
2018-08-18T05:34:19.643Z,22.50
2018-08-18T05:36:48.520Z,22.60
2018-08-18T05:39:17.360Z,22.70
2018-08-18T05:41:46.257Z,22.70
2018-08-18T05:44:15.116Z,22.80
2018-08-18T05:46:43.936Z,22.90
2018-08-18T05:49:16.823Z,22.90
2018-08-18T05:51:48.619Z,23.00
2018-08-18T05:54:23.020Z,23.00
2018-08-18T05:56:52.022Z,23.10
2018-08-18T05:59:20.984Z,23.10
2018-08-18T06:01:50.153Z,23.20
2018-08-18T06:04:20.578Z,23.20
2018-08-18T06:06:50.424Z,23.30
2018-08-18T06:09:20.547Z,23.30
2018-08-18T06:11:49.556Z,23.40
2018-08-18T06:14:19.110Z,23.40
2018-08-18T06:16:48.177Z,23.40
2018-08-18T06:19:17.249Z,23.50
2018-08-18T06:21:46.252Z,23.50
2018-08-18T06:24:15.210Z,23.60
2018-08-18T06:26:44.211Z,23.60
2018-08-18T06:29:13.344Z,23.70
2018-08-18T06:31:57.245Z,23.70
2018-08-18T06:34:26.840Z,23.80
2018-08-18T06:36:55.794Z,23.90
2018-08-18T06:39:24.833Z,23.90
2018-08-18T06:41:54.218Z,24.00
2018-08-18T06:44:27.255Z,24.00
2018-08-18T06:46:56.341Z,24.00
2018-08-18T06:49:25.354Z,24.10
2018-08-18T06:51:54.816Z,24.20
2018-08-18T06:54:23.855Z,24.20
2018-08-18T06:56:52.896Z,24.20
2018-08-18T06:59:22.407Z,24.30
2018-08-18T07:01:51.460Z,24.30
2018-08-18T07:04:24.732Z,24.40
2018-08-18T07:06:54.216Z,24.40
2018-08-18T07:09:23.237Z,24.50
2018-08-18T07:11:52.242Z,24.50
2018-08-18T07:14:21.568Z,24.60
2018-08-18T07:16:50.680Z,24.60
2018-08-18T07:19:19.813Z,24.70
2018-08-18T07:21:48.923Z,24.70
2018-08-18T07:24:17.896Z,24.80
2018-08-18T07:26:46.881Z,24.80
2018-08-18T07:29:15.968Z,24.90
2018-08-18T07:31:45.101Z,25.00
2018-08-18T07:34:14.798Z,25.00
2018-08-18T07:36:43.932Z,25.10
2018-08-18T07:39:12.996Z,25.20
2018-08-18T07:41:42.030Z,25.20
2018-08-18T07:44:11.120Z,25.30
2018-08-18T07:46:40.134Z,25.30
2018-08-18T07:49:09.080Z,25.40
2018-08-18T07:51:38.104Z,25.50
2018-08-18T07:54:07.082Z,25.50
2018-08-18T07:56:36.044Z,25.60
2018-08-18T07:59:05.137Z,25.70
2018-08-18T08:01:34.162Z,25.70
2018-08-18T08:04:03.136Z,25.80
2018-08-18T08:06:32.220Z,25.90
2018-08-18T08:09:01.232Z,26.00
2018-08-18T08:11:30.330Z,26.00
2018-08-18T08:13:59.384Z,26.00
2018-08-18T08:16:28.380Z,26.10
2018-08-18T08:18:57.396Z,26.10
2018-08-18T08:21:26.421Z,26.20
2018-08-18T08:23:55.494Z,26.20
2018-08-18T08:26:24.634Z,26.30
2018-08-18T08:28:53.700Z,26.30
2018-08-18T08:31:22.680Z,26.40
2018-08-18T08:33:51.748Z,26.40
2018-08-18T08:36:20.941Z,26.60
2018-08-18T08:38:57.207Z,26.60
2018-08-18T08:41:27.985Z,26.70
2018-08-18T08:43:57.105Z,26.70
2018-08-18T08:46:26.195Z,26.60
2018-08-18T08:48:59.245Z,26.60
2018-08-18T08:51:28.315Z,26.50
2018-08-18T08:53:59.012Z,26.60
2018-08-18T08:56:33.291Z,26.60
2018-08-18T08:59:02.453Z,26.60
2018-08-18T09:01:31.478Z,26.60
2018-08-18T09:04:00.510Z,26.70
2018-08-18T09:06:29.672Z,26.80
2018-08-18T09:08:59.406Z,26.70
2018-08-18T09:11:29.683Z,26.70
2018-08-18T09:14:06.786Z,26.70
2018-08-18T09:16:35.654Z,26.60
2018-08-18T09:19:04.482Z,26.60
2018-08-18T09:21:40.267Z,26.60
2018-08-18T09:24:09.164Z,26.60
2018-08-18T09:26:43.590Z,26.60
2018-08-18T09:29:13.693Z,26.60
2018-08-18T09:31:43.508Z,26.60
2018-08-18T09:34:12.443Z,26.60
2018-08-18T09:36:41.884Z,26.60
2018-08-18T09:39:17.757Z,26.60
2018-08-18T09:41:47.813Z,26.60
2018-08-18T09:44:21.707Z,26.60
2018-08-18T09:46:51.611Z,26.60
2018-08-18T09:49:20.540Z,26.70
2018-08-18T09:51:49.504Z,26.80
2018-08-18T09:54:18.379Z,26.90
2018-08-18T09:56:47.312Z,27.00
2018-08-18T09:59:16.177Z,27.00
2018-08-18T10:01:45.120Z,27.20
2018-08-18T10:04:14.000Z,27.20
2018-08-18T10:06:42.968Z,27.30
2018-08-18T10:09:11.788Z,27.40
2018-08-18T10:11:40.628Z,27.50
2018-08-18T10:14:09.908Z,27.60
2018-08-18T10:16:39.584Z,27.60
2018-08-18T10:19:08.401Z,27.60
2018-08-18T10:21:37.284Z,27.70
2018-08-18T10:24:06.243Z,27.70
2018-08-18T10:26:35.140Z,27.60
2018-08-18T10:29:16.065Z,27.50
2018-08-18T10:31:49.753Z,27.40
2018-08-18T10:34:19.808Z,27.40
2018-08-18T10:36:56.007Z,27.50
2018-08-18T10:39:25.005Z,27.50
2018-08-18T10:42:08.938Z,27.50
2018-08-18T10:44:37.782Z,27.50
2018-08-18T10:47:11.474Z,27.50
2018-08-18T10:49:51.277Z,27.50
2018-08-18T10:52:32.292Z,27.40
2018-08-18T10:55:03.984Z,27.50
2018-08-18T10:57:44.815Z,27.50
2018-08-18T11:00:15.510Z,27.50
2018-08-18T11:02:46.306Z,27.50
2018-08-18T11:05:15.871Z,27.50
2018-08-18T11:07:52.117Z,27.60
2018-08-18T11:10:21.428Z,27.60
2018-08-18T11:12:50.257Z,27.60
2018-08-18T11:15:19.167Z,27.60
2018-08-18T11:17:48.097Z,27.60
2018-08-18T11:20:20.892Z,27.60
2018-08-18T11:22:53.427Z,27.60
2018-08-18T11:25:30.464Z,27.50
2018-08-18T11:28:00.008Z,27.50
2018-08-18T11:30:29.168Z,27.60
2018-08-18T11:32:59.030Z,27.40
2018-08-18T11:35:28.238Z,27.30
2018-08-18T11:38:04.028Z,27.30
2018-08-18T11:40:33.237Z,27.20
2018-08-18T11:43:03.572Z,27.20
2018-08-18T11:45:33.892Z,27.20
2018-08-18T11:48:12.058Z,27.20
2018-08-18T11:50:41.280Z,27.10
2018-08-18T11:53:10.144Z,27.10
2018-08-18T11:55:39.253Z,27.10
2018-08-18T11:58:10.759Z,27.10
2018-08-18T12:00:42.852Z,27.10
2018-08-18T12:03:13.240Z,27.00
2018-08-18T12:05:50.030Z,27.10
2018-08-18T12:08:21.243Z,27.10
2018-08-18T12:10:51.441Z,27.10
2018-08-18T12:13:27.443Z,27.10
2018-08-18T12:16:00.926Z,27.10
2018-08-18T12:18:32.004Z,27.10
2018-08-18T12:21:02.184Z,27.10
2018-08-18T12:23:31.897Z,27.10
2018-08-18T12:26:05.708Z,27.10
2018-08-18T12:28:40.209Z,27.20
2018-08-18T12:31:11.676Z,27.20
2018-08-18T12:33:40.525Z,27.30
2018-08-18T12:36:09.422Z,27.30
2018-08-18T12:38:41.356Z,27.30
2018-08-18T12:41:10.201Z,27.30
2018-08-18T12:43:40.475Z,27.30
2018-08-18T12:46:12.424Z,27.30
2018-08-18T12:48:42.411Z,27.30
2018-08-18T12:51:12.511Z,27.20
2018-08-18T12:53:48.024Z,27.20
2018-08-18T12:56:19.720Z,27.20
2018-08-18T12:58:48.595Z,27.20
2018-08-18T13:01:33.867Z,27.20
2018-08-18T13:04:04.028Z,27.20
2018-08-18T13:06:43.407Z,27.20
2018-08-18T13:09:14.155Z,27.20
2018-08-18T13:11:44.361Z,27.20
2018-08-18T13:14:16.136Z,27.20
2018-08-18T13:16:45.412Z,27.10
2018-08-18T13:19:16.829Z,27.10
2018-08-18T13:21:45.689Z,27.10
2018-08-18T13:24:14.676Z,27.10
2018-08-18T13:26:43.464Z,27.10
2018-08-18T13:29:12.387Z,27.10
2018-08-18T13:31:42.284Z,27.10
2018-08-18T13:34:12.929Z,27.10
2018-08-18T13:36:42.957Z,27.10
2018-08-18T13:39:14.018Z,27.10
2018-08-18T13:41:43.815Z,27.10
2018-08-18T13:44:15.567Z,27.10
2018-08-18T13:46:46.972Z,27.00
2018-08-18T13:49:18.748Z,27.10
2018-08-18T13:51:47.585Z,27.10
2018-08-18T13:54:16.509Z,27.10
2018-08-18T13:56:45.415Z,27.00
2018-08-18T13:59:14.277Z,27.00
2018-08-18T14:01:44.590Z,27.00
2018-08-18T14:04:20.329Z,27.00
2018-08-18T14:06:54.012Z,27.00
2018-08-18T14:09:23.556Z,26.90
2018-08-18T14:12:00.411Z,26.80
2018-08-18T14:14:29.384Z,26.80
2018-08-18T14:16:58.295Z,26.70
2018-08-18T14:19:27.396Z,26.80
2018-08-18T14:22:00.672Z,26.80
2018-08-18T14:24:35.504Z,26.80
2018-08-18T14:27:05.644Z,26.80
2018-08-18T14:29:34.981Z,26.80
2018-08-18T14:32:08.226Z,26.80
2018-08-18T14:34:37.228Z,26.80
2018-08-18T14:37:12.204Z,26.80
2018-08-18T14:39:42.558Z,26.90
2018-08-18T14:42:11.419Z,26.90
2018-08-18T14:44:40.466Z,26.80
2018-08-18T14:47:09.778Z,26.80
2018-08-18T14:49:38.692Z,26.80
2018-08-18T14:52:07.856Z,26.80
2018-08-18T14:54:39.180Z,26.80
2018-08-18T14:57:08.267Z,26.80
2018-08-18T14:59:38.476Z,26.80
2018-08-18T15:02:08.440Z,26.80
2018-08-18T15:04:37.502Z,26.90
2018-08-18T15:07:06.484Z,26.90
2018-08-18T15:09:44.718Z,27.00
2018-08-18T15:12:13.795Z,27.00
2018-08-18T15:14:42.712Z,27.00
2018-08-18T15:17:11.734Z,27.00
2018-08-18T15:19:40.772Z,27.00
2018-08-18T15:22:11.706Z,27.00
2018-08-18T15:24:40.676Z,27.00
2018-08-18T15:27:09.839Z,27.00
2018-08-18T15:29:38.850Z,26.90
2018-08-18T15:32:08.384Z,27.00
2018-08-18T15:34:37.260Z,27.00
2018-08-18T15:37:06.313Z,27.00
2018-08-18T15:39:35.308Z,27.00
2018-08-18T15:42:04.897Z,26.90
2018-08-18T15:44:34.153Z,26.90
2018-08-18T15:47:03.035Z,26.90
2018-08-18T15:49:33.504Z,26.90
2018-08-18T15:52:02.379Z,26.90
2018-08-18T15:54:31.291Z,26.90
2018-08-18T15:57:00.320Z,26.80
2018-08-18T15:59:29.272Z,26.80
2018-08-18T16:01:58.105Z,26.80
2018-08-18T16:04:26.980Z,26.80
2018-08-18T16:06:55.881Z,26.80
2018-08-18T16:09:24.828Z,26.80
2018-08-18T16:11:53.996Z,26.80
2018-08-18T16:14:23.060Z,26.80
2018-08-18T16:17:00.688Z,26.80
2018-08-18T16:19:33.382Z,26.80
2018-08-18T16:22:04.217Z,26.80
2018-08-18T16:24:42.012Z,26.80
2018-08-18T16:27:12.092Z,26.80
2018-08-18T16:29:41.562Z,26.80
2018-08-18T16:32:21.233Z,26.80
2018-08-18T16:34:57.849Z,26.80
2018-08-18T16:37:27.895Z,26.70
2018-08-18T16:39:57.232Z,26.70
2018-08-18T16:42:26.095Z,26.70
2018-08-18T16:44:54.920Z,26.70
2018-08-18T16:47:23.848Z,26.70
2018-08-18T16:49:52.886Z,26.70
2018-08-18T16:52:21.874Z,26.70
2018-08-18T16:54:50.856Z,26.80
2018-08-18T16:57:19.783Z,26.80
2018-08-18T16:59:48.695Z,26.80
2018-08-18T17:02:30.998Z,26.80
2018-08-18T17:04:59.923Z,26.80
2018-08-18T17:07:28.783Z,26.80
2018-08-18T17:09:57.652Z,26.80
2018-08-18T17:12:28.958Z,26.80
2018-08-18T17:14:57.873Z,26.80
2018-08-18T17:17:27.246Z,26.70
2018-08-18T17:19:56.151Z,26.70
2018-08-18T17:22:25.028Z,26.70
2018-08-18T17:24:53.903Z,26.70
2018-08-18T17:27:23.044Z,26.70
2018-08-18T17:29:52.904Z,26.70
2018-08-18T17:32:21.912Z,26.70
2018-08-18T17:34:50.923Z,26.60
2018-08-18T17:37:19.818Z,26.60
2018-08-18T17:39:48.648Z,26.60
2018-08-18T17:42:17.560Z,26.60
2018-08-18T17:44:46.451Z,26.60
2018-08-18T17:47:15.567Z,26.60
2018-08-18T17:49:52.522Z,26.60
2018-08-18T17:52:21.463Z,26.50
2018-08-18T17:55:06.157Z,26.50
2018-08-18T17:57:35.950Z,26.50
2018-08-18T18:00:11.799Z,26.50
2018-08-18T18:02:45.861Z,26.50
2018-08-18T18:05:17.047Z,26.50
2018-08-18T18:07:46.365Z,26.50
2018-08-18T18:10:16.400Z,26.40
2018-08-18T18:12:45.321Z,26.40
2018-08-18T18:15:26.836Z,26.30
2018-08-18T18:17:55.982Z,26.30
2018-08-18T18:20:27.120Z,26.20
2018-08-18T18:22:56.144Z,26.10
2018-08-18T18:25:25.047Z,26.20
2018-08-18T18:27:53.896Z,26.20
2018-08-18T18:30:27.244Z,26.10
2018-08-18T18:32:56.440Z,26.10
2018-08-18T18:35:25.708Z,25.90
2018-08-18T18:37:57.489Z,25.70
2018-08-18T18:40:26.397Z,25.50
2018-08-18T18:42:55.342Z,25.50
2018-08-18T18:45:25.819Z,25.50
2018-08-18T18:47:55.645Z,25.40
2018-08-18T18:50:24.489Z,25.30
2018-08-18T18:52:53.296Z,25.10
2018-08-18T18:55:22.181Z,25.10
2018-08-18T18:58:03.049Z,25.00
2018-08-18T19:00:33.902Z,24.90
2018-08-18T19:03:03.101Z,24.80
2018-08-18T19:05:32.668Z,24.90
2018-08-18T19:08:09.613Z,24.90
2018-08-18T19:10:38.477Z,24.90
2018-08-18T19:13:08.051Z,24.90
2018-08-18T19:15:37.017Z,24.70
2018-08-18T19:18:06.920Z,24.70
2018-08-18T19:20:35.812Z,24.60
2018-08-18T19:23:11.135Z,24.60
2018-08-18T19:25:41.507Z,24.50
2018-08-18T19:28:12.572Z,24.40
2018-08-18T19:30:41.430Z,24.40
2018-08-18T19:33:11.140Z,24.30
2018-08-18T19:35:43.231Z,24.30
2018-08-18T19:38:12.613Z,24.10
2018-08-18T19:40:42.891Z,24.00
2018-08-18T19:43:15.825Z,24.00
2018-08-18T19:45:44.818Z,24.00
2018-08-18T19:48:18.539Z,24.00
2018-08-18T19:50:54.627Z,24.00
2018-08-18T19:53:25.219Z,24.10
2018-08-18T19:55:56.028Z,24.30
2018-08-18T19:58:25.520Z,24.30
2018-08-18T20:00:54.403Z,24.40
2018-08-18T20:03:23.880Z,24.50
2018-08-18T20:05:52.839Z,24.40
2018-08-18T20:08:23.108Z,24.50
2018-08-18T20:10:54.876Z,24.50
2018-08-18T20:13:24.995Z,24.30
2018-08-18T20:15:55.511Z,24.00
2018-08-18T20:18:24.470Z,23.90
2018-08-18T20:20:53.376Z,23.80
2018-08-18T20:23:22.471Z,23.60
2018-08-18T20:25:51.632Z,23.60
2018-08-18T20:28:20.505Z,23.60
2018-08-18T20:30:49.451Z,23.50
2018-08-18T20:33:18.317Z,23.50
2018-08-18T20:35:47.203Z,23.70
2018-08-18T20:38:16.156Z,23.60
2018-08-18T20:40:45.042Z,23.60
2018-08-18T20:43:13.931Z,23.50
2018-08-18T20:45:46.908Z,23.40
2018-08-18T20:48:17.570Z,23.40
2018-08-18T20:50:46.636Z,23.20
2018-08-18T20:53:16.488Z,23.20
2018-08-18T20:55:59.287Z,23.10
2018-08-18T20:58:28.720Z,23.10
2018-08-18T21:00:57.617Z,23.10
2018-08-18T21:03:36.155Z,23.00
2018-08-18T21:06:07.058Z,23.10
2018-08-18T21:08:35.909Z,22.90
2018-08-18T21:11:04.832Z,22.90
2018-08-18T21:13:33.768Z,22.90
2018-08-18T21:16:02.669Z,22.70
2018-08-18T21:18:33.143Z,23.00
2018-08-18T21:21:03.436Z,23.20
2018-08-18T21:23:32.311Z,23.10
2018-08-18T21:26:01.207Z,22.90
2018-08-18T21:28:30.092Z,22.90
2018-08-18T21:30:58.949Z,22.80
2018-08-18T21:33:28.113Z,22.80
2018-08-18T21:35:57.038Z,22.80
2018-08-18T21:38:25.916Z,22.70
2018-08-18T21:40:54.782Z,22.80
2018-08-18T21:43:30.628Z,22.70
2018-08-18T21:45:59.528Z,22.60
2018-08-18T21:48:40.508Z,22.60
2018-08-18T21:51:09.896Z,22.60
2018-08-18T21:53:38.757Z,22.60
2018-08-18T21:56:07.667Z,22.50
2018-08-18T21:58:36.521Z,22.60
2018-08-18T22:01:10.523Z,22.50
2018-08-18T22:03:39.494Z,22.50
2018-08-18T22:06:08.333Z,22.40
2018-08-18T22:08:37.363Z,22.40
2018-08-18T22:11:06.316Z,22.30
2018-08-18T22:13:41.879Z,22.40
2018-08-18T22:16:11.144Z,22.40
2018-08-18T22:18:44.261Z,22.30
2018-08-18T22:21:17.032Z,22.30
2018-08-18T22:23:45.837Z,22.20
2018-08-18T22:26:21.071Z,22.20
2018-08-18T22:29:01.545Z,22.20
2018-08-18T22:31:30.952Z,22.20
2018-08-18T22:34:01.149Z,22.20
2018-08-18T22:36:37.432Z,22.20
2018-08-18T22:39:09.699Z,22.20
2018-08-18T22:41:41.236Z,22.20
2018-08-18T22:44:10.053Z,22.20
2018-08-18T22:46:38.931Z,22.20
2018-08-18T22:49:07.850Z,22.20
2018-08-18T22:51:36.734Z,22.20
2018-08-18T22:54:05.631Z,22.20
2018-08-18T22:56:35.432Z,22.20
2018-08-18T22:59:06.202Z,22.20
2018-08-18T23:01:37.192Z,22.10
2018-08-18T23:04:19.000Z,22.10
2018-08-18T23:06:47.868Z,22.10
2018-08-18T23:09:16.841Z,22.10
2018-08-18T23:11:45.661Z,22.10
2018-08-18T23:14:14.569Z,22.10
2018-08-18T23:16:43.413Z,22.00
2018-08-18T23:19:12.291Z,22.00
2018-08-18T23:21:41.204Z,21.90
2018-08-18T23:24:25.162Z,21.90
2018-08-18T23:26:54.555Z,21.80
2018-08-18T23:29:23.388Z,21.80
2018-08-18T23:31:52.304Z,21.80
2018-08-18T23:34:21.371Z,21.80
2018-08-18T23:36:50.198Z,21.80
2018-08-18T23:39:19.091Z,21.80
2018-08-18T23:41:48.011Z,21.80
2018-08-18T23:44:16.860Z,21.80
2018-08-18T23:46:45.729Z,21.80
2018-08-18T23:49:14.634Z,21.80
2018-08-18T23:51:43.717Z,21.80
2018-08-18T23:54:18.101Z,21.80
2018-08-18T23:56:47.013Z,21.80
2018-08-18T23:59:17.700Z,21.80
